sensor_id;sensor_type;location;lat;lon;timestamp;pressure;altitude;pressure_sealevel;temperature;humidity
78149;BME280;67396;42.664;23.382;2024-03-23T00:55:43;95013.47;;;5.57;53.36
78149;BME280;67396;42.664;23.382;2024-03-23T00:58:08;95023.13;;;5.71;53.35
78149;BME280;67396;42.664;23.382;2024-03-23T01:00:34;95017.16;;;5.96;52.51
78149;BME280;67396;42.664;23.382;2024-03-23T01:03:00;95015.41;;;6.04;52.14
78149;BME280;67396;42.664;23.382;2024-03-23T01:05:25;95011.59;;;6.09;52.04
78149;BME280;67396;42.664;23.382;2024-03-23T01:07:51;95010.69;;;6.20;51.88
78149;BME280;67396;42.664;23.382;2024-03-23T01:10:16;95010.84;;;6.27;52.00
78149;BME280;67396;42.664;23.382;2024-03-23T01:12:42;95010.28;;;6.37;51.58
78149;BME280;67396;42.664;23.382;2024-03-23T01:15:07;95008.28;;;6.34;51.66
78149;BME280;67396;42.664;23.382;2024-03-23T01:17:33;95003.41;;;6.24;51.95
78149;BME280;67396;42.664;23.382;2024-03-23T01:19:58;95010.34;;;6.22;52.34
78149;BME280;67396;42.664;23.382;2024-03-23T01:22:24;95012.00;;;6.26;52.61
78149;BME280;67396;42.664;23.382;2024-03-23T01:24:50;95001.81;;;6.23;52.74
78149;BME280;67396;42.664;23.382;2024-03-23T01:27:16;95004.00;;;6.18;52.47
78149;BME280;67396;42.664;23.382;2024-03-23T01:29:41;95001.38;;;6.21;51.87
78149;BME280;67396;42.664;23.382;2024-03-23T01:32:07;95001.28;;;6.18;51.48
78149;BME280;67396;42.664;23.382;2024-03-23T01:34:32;95005.91;;;5.98;51.46
78149;BME280;67396;42.664;23.382;2024-03-23T01:36:58;95012.84;;;5.64;53.20
78149;BME280;67396;42.664;23.382;2024-03-23T01:39:24;95007.94;;;5.70;53.24
78149;BME280;67396;42.664;23.382;2024-03-23T01:41:49;95006.16;;;5.77;53.87
78149;BME280;67396;42.664;23.382;2024-03-23T01:44:15;95005.31;;;5.89;53.82
78149;BME280;67396;42.664;23.382;2024-03-23T01:46:41;95007.47;;;5.99;53.11
78149;BME280;67396;42.664;23.382;2024-03-23T01:49:08;95002.03;;;5.99;53.31
78149;BME280;67396;42.664;23.382;2024-03-23T01:51:34;95001.22;;;5.83;53.48
78149;BME280;67396;42.664;23.382;2024-03-23T01:54:01;94996.06;;;5.78;53.39
78149;BME280;67396;42.664;23.382;2024-03-23T01:56:32;95003.63;;;5.68;53.35
78149;BME280;67396;42.664;23.382;2024-03-23T01:59:06;95003.78;;;5.76;52.88
78149;BME280;67396;42.664;23.382;2024-03-23T02:01:32;95010.31;;;5.71;53.38
78149;BME280;67396;42.664;23.382;2024-03-23T02:03:58;95013.13;;;5.43;53.96
78149;BME280;67396;42.664;23.382;2024-03-23T02:06:24;95017.91;;;5.18;54.78
78149;BME280;67396;42.664;23.382;2024-03-23T02:08:50;95016.72;;;5.04;55.27
78149;BME280;67396;42.664;23.382;2024-03-23T02:11:16;95012.00;;;5.01;55.43
78149;BME280;67396;42.664;23.382;2024-03-23T02:13:41;95018.59;;;5.00;55.23
78149;BME280;67396;42.664;23.382;2024-03-23T02:16:07;95017.34;;;4.69;56.08
78149;BME280;67396;42.664;23.382;2024-03-23T02:18:33;95013.66;;;4.49;56.63
78149;BME280;67396;42.664;23.382;2024-03-23T02:20:59;95012.72;;;4.30;57.19
78149;BME280;67396;42.664;23.382;2024-03-23T02:23:24;95008.91;;;4.06;58.46
78149;BME280;67396;42.664;23.382;2024-03-23T02:25:50;95011.88;;;4.01;58.76
78149;BME280;67396;42.664;23.382;2024-03-23T02:28:16;95021.81;;;4.09;59.01
78149;BME280;67396;42.664;23.382;2024-03-23T02:30:42;95017.69;;;4.28;58.66
78149;BME280;67396;42.664;23.382;2024-03-23T02:33:08;95016.03;;;4.51;57.71
78149;BME280;67396;42.664;23.382;2024-03-23T02:35:33;95024.25;;;4.67;57.70
78149;BME280;67396;42.664;23.382;2024-03-23T02:37:59;95018.25;;;4.73;57.34
78149;BME280;67396;42.664;23.382;2024-03-23T02:40:25;95020.72;;;4.78;57.18
78149;BME280;67396;42.664;23.382;2024-03-23T02:42:51;95020.75;;;4.94;57.37
78149;BME280;67396;42.664;23.382;2024-03-23T02:45:16;95018.13;;;4.98;56.85
78149;BME280;67396;42.664;23.382;2024-03-23T02:47:42;95028.81;;;4.90;56.47
78149;BME280;67396;42.664;23.382;2024-03-23T02:50:08;95014.28;;;4.99;56.00
78149;BME280;67396;42.664;23.382;2024-03-23T02:52:35;95009.91;;;5.10;56.30
78149;BME280;67396;42.664;23.382;2024-03-23T02:55:00;95014.31;;;5.14;55.90
78149;BME280;67396;42.664;23.382;2024-03-23T02:57:27;95013.31;;;5.07;56.31
78149;BME280;67396;42.664;23.382;2024-03-23T02:59:53;95015.44;;;5.13;55.79
78149;BME280;67396;42.664;23.382;2024-03-23T03:02:18;95013.50;;;5.14;55.41
78149;BME280;67396;42.664;23.382;2024-03-23T03:04:44;95013.44;;;5.26;54.33
78149;BME280;67396;42.664;23.382;2024-03-23T03:07:09;95014.31;;;5.14;54.94
78149;BME280;67396;42.664;23.382;2024-03-23T03:09:35;95011.16;;;5.28;54.25
78149;BME280;67396;42.664;23.382;2024-03-23T03:12:04;95011.84;;;5.09;54.45
78149;BME280;67396;42.664;23.382;2024-03-23T03:14:29;95014.16;;;4.95;55.46
78149;BME280;67396;42.664;23.382;2024-03-23T03:16:55;95004.88;;;4.96;55.20
78149;BME280;67396;42.664;23.382;2024-03-23T03:19:20;95007.78;;;4.75;56.53
78149;BME280;67396;42.664;23.382;2024-03-23T03:21:46;95020.41;;;4.96;55.68
78149;BME280;67396;42.664;23.382;2024-03-23T03:24:13;95015.94;;;5.03;55.91
78149;BME280;67396;42.664;23.382;2024-03-23T03:26:38;95015.84;;;5.90;90.36
78149;BME280;67396;42.664;23.382;2024-03-23T03:29:03;95022.59;;;6.47;80.48
78149;BME280;67396;42.664;23.382;2024-03-23T03:31:29;95013.41;;;6.55;57.10
78149;BME280;67396;42.664;23.382;2024-03-23T03:33:55;95016.66;;;6.26;55.02
78149;BME280;67396;42.664;23.382;2024-03-23T03:36:20;95018.81;;;6.01;54.67
78149;BME280;67396;42.664;23.382;2024-03-23T03:38:46;95014.41;;;5.65;55.91
78149;BME280;67396;42.664;23.382;2024-03-23T03:41:11;95014.31;;;5.30;56.73
78149;BME280;67396;42.664;23.382;2024-03-23T03:43:37;95016.97;;;5.26;56.67
78149;BME280;67396;42.664;23.382;2024-03-23T03:46:03;95018.28;;;4.89;57.78
78149;BME280;67396;42.664;23.382;2024-03-23T03:48:29;95015.94;;;5.03;56.73
78149;BME280;67396;42.664;23.382;2024-03-23T03:50:54;95016.91;;;5.11;56.63
78149;BME280;67396;42.664;23.382;2024-03-23T03:53:20;95013.00;;;5.08;56.48
78149;BME280;67396;42.664;23.382;2024-03-23T03:55:46;95015.53;;;5.01;57.11
78149;BME280;67396;42.664;23.382;2024-03-23T03:58:12;95020.97;;;5.01;57.77
78149;BME280;67396;42.664;23.382;2024-03-23T04:00:38;95017.00;;;4.99;58.04
78149;BME280;67396;42.664;23.382;2024-03-23T04:03:03;95016.03;;;4.91;58.25
78149;BME280;67396;42.664;23.382;2024-03-23T04:05:29;95026.09;;;4.90;58.91
78149;BME280;67396;42.664;23.382;2024-03-23T04:07:54;95021.50;;;4.79;59.04
78149;BME280;67396;42.664;23.382;2024-03-23T04:10:20;95015.47;;;4.85;59.18
78149;BME280;67396;42.664;23.382;2024-03-23T04:12:47;95021.25;;;4.84;59.06
78149;BME280;67396;42.664;23.382;2024-03-23T04:15:13;95020.81;;;4.82;59.09
78149;BME280;67396;42.664;23.382;2024-03-23T04:17:39;95022.56;;;4.74;59.19
78149;BME280;67396;42.664;23.382;2024-03-23T04:20:05;95026.31;;;4.58;59.68
78149;BME280;67396;42.664;23.382;2024-03-23T04:22:34;95024.91;;;4.48;60.24
78149;BME280;67396;42.664;23.382;2024-03-23T04:25:00;95024.72;;;4.29;60.97
78149;BME280;67396;42.664;23.382;2024-03-23T04:27:28;95021.81;;;4.09;61.43
78149;BME280;67396;42.664;23.382;2024-03-23T04:29:54;95021.47;;;4.11;61.41
78149;BME280;67396;42.664;23.382;2024-03-23T04:32:19;95019.56;;;4.11;60.71
78149;BME280;67396;42.664;23.382;2024-03-23T04:34:45;95033.78;;;4.21;60.62
78149;BME280;67396;42.664;23.382;2024-03-23T04:37:11;95030.94;;;4.29;60.96
78149;BME280;67396;42.664;23.382;2024-03-23T04:39:37;95037.84;;;4.27;60.21
78149;BME280;67396;42.664;23.382;2024-03-23T04:42:03;95029.25;;;4.25;59.63
78149;BME280;67396;42.664;23.382;2024-03-23T04:44:28;95031.56;;;3.74;60.56
78149;BME280;67396;42.664;23.382;2024-03-23T04:46:54;95031.53;;;3.98;59.29
78149;BME280;67396;42.664;23.382;2024-03-23T04:49:20;95034.03;;;3.91;59.99
78149;BME280;67396;42.664;23.382;2024-03-23T04:51:45;95038.81;;;3.94;59.81
78149;BME280;67396;42.664;23.382;2024-03-23T04:54:15;95038.22;;;4.01;59.80
78149;BME280;67396;42.664;23.382;2024-03-23T04:56:40;95041.75;;;3.77;60.70
78149;BME280;67396;42.664;23.382;2024-03-23T04:59:06;95036.53;;;3.84;60.61
78149;BME280;67396;42.664;23.382;2024-03-23T05:01:31;95046.72;;;3.99;59.43
78149;BME280;67396;42.664;23.382;2024-03-23T05:03:57;95051.91;;;3.80;60.18
78149;BME280;67396;42.664;23.382;2024-03-23T05:06:24;95036.31;;;4.01;59.85
78149;BME280;67396;42.664;23.382;2024-03-23T05:08:51;95040.84;;;3.85;59.76
78149;BME280;67396;42.664;23.382;2024-03-23T05:11:16;95043.91;;;3.84;60.29
78149;BME280;67396;42.664;23.382;2024-03-23T05:13:43;95045.25;;;3.65;61.24
78149;BME280;67396;42.664;23.382;2024-03-23T05:16:09;95045.38;;;3.93;60.45
78149;BME280;67396;42.664;23.382;2024-03-23T05:18:35;95036.19;;;4.22;59.26
78149;BME280;67396;42.664;23.382;2024-03-23T05:21:01;95032.66;;;3.97;59.85
78149;BME280;67396;42.664;23.382;2024-03-23T05:23:28;95034.03;;;3.91;60.64
78149;BME280;67396;42.664;23.382;2024-03-23T05:25:53;95036.84;;;4.19;59.52
78149;BME280;67396;42.664;23.382;2024-03-23T05:28:20;95046.94;;;4.59;58.62
78149;BME280;67396;42.664;23.382;2024-03-23T05:30:56;95030.94;;;4.69;57.79
78149;BME280;67396;42.664;23.382;2024-03-23T05:33:24;95037.84;;;4.67;57.90
78149;BME280;67396;42.664;23.382;2024-03-23T05:36:00;95030.56;;;4.83;57.21
78149;BME280;67396;42.664;23.382;2024-03-23T05:38:26;95038.53;;;5.19;55.82
78149;BME280;67396;42.664;23.382;2024-03-23T05:40:56;95031.38;;;5.27;55.51
78149;BME280;67396;42.664;23.382;2024-03-23T05:43:22;95036.31;;;5.53;55.06
78149;BME280;67396;42.664;23.382;2024-03-23T05:45:55;95033.31;;;6.05;55.16
78149;BME280;67396;42.664;23.382;2024-03-23T05:48:21;95028.41;;;5.79;53.86
78149;BME280;67396;42.664;23.382;2024-03-23T05:50:50;95032.78;;;5.52;55.19
78149;BME280;67396;42.664;23.382;2024-03-23T05:53:17;95036.03;;;5.58;55.61
78149;BME280;67396;42.664;23.382;2024-03-23T05:55:43;95027.88;;;5.42;55.68
78149;BME280;67396;42.664;23.382;2024-03-23T05:58:09;95035.34;;;5.61;55.54
78149;BME280;67396;42.664;23.382;2024-03-23T06:00:37;95025.31;;;6.12;53.77
78149;BME280;67396;42.664;23.382;2024-03-23T06:03:02;95030.44;;;6.68;52.72
78149;BME280;67396;42.664;23.382;2024-03-23T06:05:31;95026.09;;;7.05;51.44
78149;BME280;67396;42.664;23.382;2024-03-23T06:08:15;95029.81;;;7.36;50.86
78149;BME280;67396;42.664;23.382;2024-03-23T06:10:47;95017.53;;;7.94;50.48
78149;BME280;67396;42.664;23.382;2024-03-23T06:13:20;95024.75;;;8.06;48.44
78149;BME280;67396;42.664;23.382;2024-03-23T06:15:58;95021.31;;;7.86;50.42
78149;BME280;67396;42.664;23.382;2024-03-23T06:19:00;95017.91;;;8.19;47.79
78149;BME280;67396;42.664;23.382;2024-03-23T06:21:24;95014.28;;;8.12;49.84
78149;BME280;67396;42.664;23.382;2024-03-23T06:23:57;95023.88;;;7.99;50.37
78149;BME280;67396;42.664;23.382;2024-03-23T06:26:22;95018.88;;;8.04;51.48
78149;BME280;67396;42.664;23.382;2024-03-23T06:28:59;95015.44;;;8.11;51.76
78149;BME280;67396;42.664;23.382;2024-03-23T06:32:03;95021.69;;;8.60;50.21
78149;BME280;67396;42.664;23.382;2024-03-23T06:34:48;95015.75;;;9.18;48.99
78149;BME280;67396;42.664;23.382;2024-03-23T06:37:31;95021.09;;;9.41;47.94
78149;BME280;67396;42.664;23.382;2024-03-23T06:40:00;95026.25;;;9.90;46.94
78149;BME280;67396;42.664;23.382;2024-03-23T06:42:26;95020.88;;;9.60;46.76
78149;BME280;67396;42.664;23.382;2024-03-23T06:44:51;95024.69;;;9.15;48.10
78149;BME280;67396;42.664;23.382;2024-03-23T06:47:20;95025.53;;;9.56;47.17
78149;BME280;67396;42.664;23.382;2024-03-23T06:49:45;95020.66;;;9.79;47.27
78149;BME280;67396;42.664;23.382;2024-03-23T06:52:11;95022.47;;;10.60;45.82
78149;BME280;67396;42.664;23.382;2024-03-23T06:54:36;95017.16;;;10.88;42.35
78149;BME280;67396;42.664;23.382;2024-03-23T06:57:02;95014.56;;;11.38;41.95
78149;BME280;67396;42.664;23.382;2024-03-23T06:59:28;95009.88;;;11.46;40.88
78149;BME280;67396;42.664;23.382;2024-03-23T07:01:53;95012.31;;;11.68;40.51
78149;BME280;67396;42.664;23.382;2024-03-23T07:04:22;95006.06;;;12.11;39.64
78149;BME280;67396;42.664;23.382;2024-03-23T07:06:47;95008.44;;;12.19;39.41
78149;BME280;67396;42.664;23.382;2024-03-23T07:09:13;94992.69;;;12.23;40.34
78149;BME280;67396;42.664;23.382;2024-03-23T07:11:39;95000.56;;;12.18;40.21
78149;BME280;67396;42.664;23.382;2024-03-23T07:14:04;95000.53;;;12.42;38.77
78149;BME280;67396;42.664;23.382;2024-03-23T07:16:31;94998.16;;;12.55;38.81
78149;BME280;67396;42.664;23.382;2024-03-23T07:18:56;94995.72;;;12.89;38.06
78149;BME280;67396;42.664;23.382;2024-03-23T07:21:22;94998.88;;;12.84;38.67
78149;BME280;67396;42.664;23.382;2024-03-23T07:23:47;94999.63;;;12.95;38.00
78149;BME280;67396;42.664;23.382;2024-03-23T07:26:13;94996.47;;;13.00;38.33
78149;BME280;67396;42.664;23.382;2024-03-23T07:28:40;94991.31;;;13.09;38.55
78149;BME280;67396;42.664;23.382;2024-03-23T07:31:13;94986.72;;;12.71;39.68
78149;BME280;67396;42.664;23.382;2024-03-23T07:33:43;94983.19;;;12.74;39.68
78149;BME280;67396;42.664;23.382;2024-03-23T07:36:09;94984.06;;;12.03;40.35
78149;BME280;67396;42.664;23.382;2024-03-23T07:38:34;94972.28;;;11.78;41.39
78149;BME280;67396;42.664;23.382;2024-03-23T07:41:10;94979.34;;;12.04;40.18
78149;BME280;67396;42.664;23.382;2024-03-23T07:43:37;94991.03;;;12.82;38.29
78149;BME280;67396;42.664;23.382;2024-03-23T07:46:03;94979.59;;;12.77;38.41
78149;BME280;67396;42.664;23.382;2024-03-23T07:48:30;94973.16;;;13.23;38.36
78149;BME280;67396;42.664;23.382;2024-03-23T07:51:09;94981.03;;;13.21;38.59
78149;BME280;67396;42.664;23.382;2024-03-23T07:53:36;94979.22;;;12.82;39.22
78149;BME280;67396;42.664;23.382;2024-03-23T07:56:06;94971.41;;;12.56;39.15
78149;BME280;67396;42.664;23.382;2024-03-23T07:58:33;94976.38;;;13.03;38.43
78149;BME280;67396;42.664;23.382;2024-03-23T08:01:10;94968.78;;;13.36;38.31
78149;BME280;67396;42.664;23.382;2024-03-23T08:03:37;94980.41;;;12.81;40.22
78149;BME280;67396;42.664;23.382;2024-03-23T08:08:35;94981.50;;;13.01;39.89
78149;BME280;67396;42.664;23.382;2024-03-23T08:11:01;94981.09;;;13.06;39.50
78149;BME280;67396;42.664;23.382;2024-03-23T08:13:27;94971.47;;;13.46;38.34
78149;BME280;67396;42.664;23.382;2024-03-23T08:15:59;94975.72;;;13.62;41.51
78149;BME280;67396;42.664;23.382;2024-03-23T08:18:28;94972.47;;;13.77;38.22
78149;BME280;67396;42.664;23.382;2024-03-23T08:21:03;94965.16;;;14.01;37.84
78149;BME280;67396;42.664;23.382;2024-03-23T08:23:35;94961.63;;;14.01;39.17
78149;BME280;67396;42.664;23.382;2024-03-23T08:26:05;94968.75;;;13.98;36.83
78149;BME280;67396;42.664;23.382;2024-03-23T08:28:31;94955.41;;;14.34;37.05
78149;BME280;67396;42.664;23.382;2024-03-23T08:31:01;94954.25;;;14.76;37.05
78149;BME280;67396;42.664;23.382;2024-03-23T08:33:26;94952.38;;;15.00;34.57
78149;BME280;67396;42.664;23.382;2024-03-23T08:36:02;94956.31;;;14.68;37.21
78149;BME280;67396;42.664;23.382;2024-03-23T08:38:28;94954.66;;;14.75;35.05
78149;BME280;67396;42.664;23.382;2024-03-23T08:43:28;94945.81;;;15.21;35.90
78149;BME280;67396;42.664;23.382;2024-03-23T08:46:06;94943.78;;;15.25;33.34
78149;BME280;67396;42.664;23.382;2024-03-23T08:48:34;94929.03;;;15.35;34.05
78149;BME280;67396;42.664;23.382;2024-03-23T08:51:01;94930.34;;;14.93;32.94
78149;BME280;67396;42.664;23.382;2024-03-23T08:53:28;94932.53;;;14.41;34.13
78149;BME280;67396;42.664;23.382;2024-03-23T08:55:55;94935.28;;;13.92;35.22
78149;BME280;67396;42.664;23.382;2024-03-23T08:58:22;94927.53;;;13.77;35.21
78149;BME280;67396;42.664;23.382;2024-03-23T09:00:49;94930.81;;;13.57;36.22
78149;BME280;67396;42.664;23.382;2024-03-23T09:03:15;94931.97;;;12.87;37.34
78149;BME280;67396;42.664;23.382;2024-03-23T09:05:40;94921.84;;;12.56;38.14
78149;BME280;67396;42.664;23.382;2024-03-23T09:08:06;94924.19;;;12.61;38.25
78149;BME280;67396;42.664;23.382;2024-03-23T09:10:37;94915.50;;;12.73;37.73
78149;BME280;67396;42.664;23.382;2024-03-23T09:13:03;94910.13;;;12.30;39.84
78149;BME280;67396;42.664;23.382;2024-03-23T09:15:29;94908.44;;;12.61;38.04
78149;BME280;67396;42.664;23.382;2024-03-23T09:17:54;94902.13;;;12.68;37.27
78149;BME280;67396;42.664;23.382;2024-03-23T09:20:20;94897.38;;;12.75;36.56
78149;BME280;67396;42.664;23.382;2024-03-23T09:22:48;94891.22;;;12.32;38.17
78149;BME280;67396;42.664;23.382;2024-03-23T09:25:13;94898.69;;;12.42;38.26
78149;BME280;67396;42.664;23.382;2024-03-23T09:27:39;94886.78;;;12.67;37.46
78149;BME280;67396;42.664;23.382;2024-03-23T09:30:05;94883.66;;;12.58;37.28
78149;BME280;67396;42.664;23.382;2024-03-23T09:32:38;94873.06;;;12.60;37.85
78149;BME280;67396;42.664;23.382;2024-03-23T09:35:07;94866.44;;;12.47;38.72
78149;BME280;67396;42.664;23.382;2024-03-23T09:37:38;94867.97;;;12.51;38.62
78149;BME280;67396;42.664;23.382;2024-03-23T09:44:57;94849.53;;;12.44;38.40
78149;BME280;67396;42.664;23.382;2024-03-23T09:47:25;94846.38;;;12.46;38.18
78149;BME280;67396;42.664;23.382;2024-03-23T09:49:58;94856.63;;;12.38;38.67
78149;BME280;67396;42.664;23.382;2024-03-23T09:52:23;94841.25;;;12.41;39.38
78149;BME280;67396;42.664;23.382;2024-03-23T09:54:49;94839.69;;;12.47;38.31
78149;BME280;67396;42.664;23.382;2024-03-23T09:57:14;94831.47;;;12.40;37.68
78149;BME280;67396;42.664;23.382;2024-03-23T09:59:42;94833.00;;;12.41;37.34
78149;BME280;67396;42.664;23.382;2024-03-23T10:02:08;94834.56;;;12.46;37.01
78149;BME280;67396;42.664;23.382;2024-03-23T10:04:36;94831.47;;;12.36;37.48
78149;BME280;67396;42.664;23.382;2024-03-23T10:07:15;94816.56;;;12.30;37.69
78149;BME280;67396;42.664;23.382;2024-03-23T10:09:45;94818.06;;;12.46;37.13
78149;BME280;67396;42.664;23.382;2024-03-23T10:12:16;94828.72;;;12.36;37.26
78149;BME280;67396;42.664;23.382;2024-03-23T10:14:43;94814.09;;;12.50;36.41
78149;BME280;67396;42.664;23.382;2024-03-23T10:17:19;94805.81;;;12.57;36.59
78149;BME280;67396;42.664;23.382;2024-03-23T10:19:49;94806.16;;;12.63;36.14
78149;BME280;67396;42.664;23.382;2024-03-23T10:22:20;94806.97;;;12.63;37.05
78149;BME280;67396;42.664;23.382;2024-03-23T10:24:47;94799.09;;;12.62;37.57
78149;BME280;67396;42.664;23.382;2024-03-23T10:27:17;94799.00;;;12.76;36.97
78149;BME280;67396;42.664;23.382;2024-03-23T10:29:47;94784.84;;;12.77;37.11
78149;BME280;67396;42.664;23.382;2024-03-23T10:32:15;94789.91;;;12.86;37.47
78149;BME280;67396;42.664;23.382;2024-03-23T10:34:44;94794.28;;;12.76;37.98
78149;BME280;67396;42.664;23.382;2024-03-23T10:37:10;94784.44;;;12.82;37.38
78149;BME280;67396;42.664;23.382;2024-03-23T10:39:38;94761.88;;;12.98;36.73
78149;BME280;67396;42.664;23.382;2024-03-23T10:42:06;94757.50;;;13.04;36.99
78149;BME280;67396;42.664;23.382;2024-03-23T10:44:33;94754.81;;;12.97;36.13
78149;BME280;67396;42.664;23.382;2024-03-23T10:47:00;94755.94;;;13.03;35.67
78149;BME280;67396;42.664;23.382;2024-03-23T10:49:31;94752.38;;;13.06;36.33
78149;BME280;67396;42.664;23.382;2024-03-23T10:52:04;94742.97;;;13.00;36.40
78149;BME280;67396;42.664;23.382;2024-03-23T10:54:31;94735.44;;;13.04;35.57
78149;BME280;67396;42.664;23.382;2024-03-23T11:00:02;94729.41;;;13.24;36.13
78149;BME280;67396;42.664;23.382;2024-03-23T11:02:29;94726.25;;;13.25;36.30
78149;BME280;67396;42.664;23.382;2024-03-23T11:04:55;94715.97;;;13.29;35.99
78149;BME280;67396;42.664;23.382;2024-03-23T11:09:50;94704.84;;;13.40;34.40
78149;BME280;67396;42.664;23.382;2024-03-23T11:12:28;94699.63;;;13.49;33.64
78149;BME280;67396;42.664;23.382;2024-03-23T11:15:11;94692.13;;;13.53;34.01
78149;BME280;67396;42.664;23.382;2024-03-23T11:17:37;94685.06;;;13.48;33.92
78149;BME280;67396;42.664;23.382;2024-03-23T11:20:31;94681.16;;;13.46;34.67
78149;BME280;67396;42.664;23.382;2024-03-23T11:22:57;94672.47;;;13.47;35.25
78149;BME280;67396;42.664;23.382;2024-03-23T11:25:23;94674.75;;;13.56;34.04
78149;BME280;67396;42.664;23.382;2024-03-23T11:27:56;94671.53;;;13.61;34.00
78149;BME280;67396;42.664;23.382;2024-03-23T11:30:27;94666.75;;;13.65;34.20
78149;BME280;67396;42.664;23.382;2024-03-23T11:32:54;94667.16;;;13.64;33.74
78149;BME280;67396;42.664;23.382;2024-03-23T11:38:06;94656.31;;;13.49;33.51
78149;BME280;67396;42.664;23.382;2024-03-23T11:40:37;94649.19;;;13.52;33.19
78149;BME280;67396;42.664;23.382;2024-03-23T11:43:04;94641.59;;;13.63;33.27
78149;BME280;67396;42.664;23.382;2024-03-23T11:45:35;94636.19;;;13.52;33.42
78149;BME280;67396;42.664;23.382;2024-03-23T11:50:42;94623.75;;;13.71;32.43
78149;BME280;67396;42.664;23.382;2024-03-23T11:53:20;94622.91;;;13.74;32.45
78149;BME280;67396;42.664;23.382;2024-03-23T11:55:53;94622.47;;;13.79;32.64
78149;BME280;67396;42.664;23.382;2024-03-23T11:58:28;94608.56;;;13.86;33.09
78149;BME280;67396;42.664;23.382;2024-03-23T12:01:00;94597.84;;;13.92;32.80
78149;BME280;67396;42.664;23.382;2024-03-23T12:03:30;94602.66;;;13.88;32.57
78149;BME280;67396;42.664;23.382;2024-03-23T12:05:59;94591.09;;;13.97;32.30
78149;BME280;67396;42.664;23.382;2024-03-23T12:08:32;94592.16;;;14.06;32.16
78149;BME280;67396;42.664;23.382;2024-03-23T12:11:15;94584.28;;;14.05;32.40
78149;BME280;67396;42.664;23.382;2024-03-23T12:13:45;94578.75;;;14.05;32.29
78149;BME280;67396;42.664;23.382;2024-03-23T12:16:15;94568.13;;;14.03;32.72
78149;BME280;67396;42.664;23.382;2024-03-23T12:18:42;94566.72;;;14.18;32.32
78149;BME280;67396;42.664;23.382;2024-03-23T12:21:09;94560.41;;;14.18;32.59
78149;BME280;67396;42.664;23.382;2024-03-23T12:23:41;94567.38;;;14.26;32.89
78149;BME280;67396;42.664;23.382;2024-03-23T12:26:07;94550.81;;;14.26;31.90
78149;BME280;67396;42.664;23.382;2024-03-23T12:28:33;94554.31;;;14.30;32.08
78149;BME280;67396;42.664;23.382;2024-03-23T12:30:58;94560.56;;;14.34;32.16
78149;BME280;67396;42.664;23.382;2024-03-23T12:33:24;94548.31;;;14.35;32.26
78149;BME280;67396;42.664;23.382;2024-03-23T12:35:54;94542.78;;;14.39;31.78
78149;BME280;67396;42.664;23.382;2024-03-23T12:38:19;94544.59;;;14.49;32.07
78149;BME280;67396;42.664;23.382;2024-03-23T12:40:51;94546.84;;;14.54;31.59
78149;BME280;67396;42.664;23.382;2024-03-23T12:43:21;94533.13;;;14.50;31.53
78149;BME280;67396;42.664;23.382;2024-03-23T12:48:13;94533.78;;;14.58;31.61
78149;BME280;67396;42.664;23.382;2024-03-23T12:50:39;94530.94;;;14.61;31.48
78149;BME280;67396;42.664;23.382;2024-03-23T12:53:05;94522.97;;;14.67;31.57
78149;BME280;67396;42.664;23.382;2024-03-23T12:55:37;94514.38;;;14.61;31.96
78149;BME280;67396;42.664;23.382;2024-03-23T12:58:02;94513.78;;;14.74;31.44
78149;BME280;67396;42.664;23.382;2024-03-23T13:00:28;94513.00;;;14.73;31.34
78149;BME280;67396;42.664;23.382;2024-03-23T13:02:54;94515.00;;;14.49;30.67
78149;BME280;67396;42.664;23.382;2024-03-23T13:05:19;94515.00;;;14.49;30.01
78149;BME280;67396;42.664;23.382;2024-03-23T13:07:45;94502.31;;;14.52;29.82
78149;BME280;67396;42.664;23.382;2024-03-23T13:10:10;94498.28;;;14.56;29.71
78149;BME280;67396;42.664;23.382;2024-03-23T13:12:36;94495.91;;;14.58;30.80
78149;BME280;67396;42.664;23.382;2024-03-23T13:15:01;94486.75;;;14.61;28.65
78149;BME280;67396;42.664;23.382;2024-03-23T13:17:27;94482.66;;;14.69;29.10
78149;BME280;67396;42.664;23.382;2024-03-23T13:19:54;94479.41;;;14.75;29.50
78149;BME280;67396;42.664;23.382;2024-03-23T13:22:21;94478.06;;;14.83;29.44
78149;BME280;67396;42.664;23.382;2024-03-23T13:24:46;94464.13;;;14.90;28.53
78149;BME280;67396;42.664;23.382;2024-03-23T13:27:12;94470.69;;;14.96;28.06
78149;BME280;67396;42.664;23.382;2024-03-23T13:29:37;94458.88;;;14.95;27.94
78149;BME280;67396;42.664;23.382;2024-03-23T13:32:03;94459.66;;;14.96;27.97
78149;BME280;67396;42.664;23.382;2024-03-23T13:34:29;94460.38;;;15.00;26.50
78149;BME280;67396;42.664;23.382;2024-03-23T13:36:55;94459.59;;;14.99;26.20
78149;BME280;67396;42.664;23.382;2024-03-23T13:39:25;94453.28;;;14.99;26.74
78149;BME280;67396;42.664;23.382;2024-03-23T13:41:52;94456.75;;;15.03;27.78
78149;BME280;67396;42.664;23.382;2024-03-23T13:44:18;94455.47;;;15.07;29.37
78149;BME280;67396;42.664;23.382;2024-03-23T13:46:46;94446.03;;;15.05;29.28
78149;BME280;67396;42.664;23.382;2024-03-23T13:49:29;94443.63;;;15.07;28.79
78149;BME280;67396;42.664;23.382;2024-03-23T13:51:56;94435.56;;;15.16;28.02
78149;BME280;67396;42.664;23.382;2024-03-23T13:54:26;94438.31;;;15.16;28.07
78149;BME280;67396;42.664;23.382;2024-03-23T13:56:53;94435.75;;;15.05;28.69
78149;BME280;67396;42.664;23.382;2024-03-23T13:59:19;94444.00;;;15.09;27.87
78149;BME280;67396;42.664;23.382;2024-03-23T14:01:49;94426.13;;;15.14;27.86
78149;BME280;67396;42.664;23.382;2024-03-23T14:04:16;94432.31;;;15.21;26.20
78149;BME280;67396;42.664;23.382;2024-03-23T14:06:42;94425.13;;;15.24;25.50
78149;BME280;67396;42.664;23.382;2024-03-23T14:09:10;94419.00;;;15.32;24.88
78149;BME280;67396;42.664;23.382;2024-03-23T14:11:36;94413.78;;;15.38;25.19
78149;BME280;67396;42.664;23.382;2024-03-23T14:14:02;94420.94;;;15.35;24.75
78149;BME280;67396;42.664;23.382;2024-03-23T14:16:29;94415.03;;;15.33;24.33